createdAt,value
2018-10-19T00:01:11.459Z,95276.52
2018-10-19T00:03:40.915Z,95273.89
2018-10-19T00:06:10.352Z,95270.47
2018-10-19T00:08:40.075Z,95267.03
2018-10-19T00:11:10.036Z,95274.63
2018-10-19T00:13:40.259Z,95218.75
2018-10-19T00:16:10.000Z,95264.59
2018-10-19T00:18:39.674Z,95272.70
2018-10-19T00:21:09.544Z,95269.53
2018-10-19T00:23:39.196Z,95266.36
2018-10-19T00:26:09.040Z,95261.69
2018-10-19T00:28:38.531Z,95262.47
2018-10-19T00:31:08.267Z,95271.38
2018-10-19T00:33:37.950Z,95266.67
2018-10-19T00:36:07.585Z,95265.34
2018-10-19T00:38:37.223Z,95269.27
2018-10-19T00:41:06.730Z,95258.51
2018-10-19T00:43:37.438Z,95265.64
2018-10-19T00:46:06.803Z,95262.96
2018-10-19T00:48:36.226Z,95260.58
2018-10-19T00:51:08.913Z,95263.73
2018-10-19T00:53:38.522Z,95259.53
2018-10-19T00:56:08.650Z,95258.23
2018-10-19T00:58:38.426Z,95254.27
2018-10-19T01:01:08.104Z,95252.41
2018-10-19T01:03:37.661Z,95252.61
2018-10-19T01:06:07.209Z,95248.98
2018-10-19T01:08:36.831Z,95248.62
2018-10-19T01:11:06.600Z,95248.09
2018-10-19T01:13:36.666Z,95250.38
2018-10-19T01:16:06.422Z,95252.52
2018-10-19T01:18:36.173Z,95252.66
2018-10-19T01:21:06.104Z,95248.41
2018-10-19T01:23:35.745Z,95240.17
2018-10-19T01:26:05.689Z,95237.13
2018-10-19T01:28:35.686Z,95232.67
2018-10-19T01:31:05.559Z,95224.57
2018-10-19T01:33:35.266Z,95225.44
2018-10-19T01:36:06.343Z,95227.97
2018-10-19T01:38:36.668Z,95227.17
2018-10-19T01:41:06.727Z,95223.48
2018-10-19T01:43:36.622Z,95234.19
2018-10-19T01:46:06.373Z,95233.33
2018-10-19T01:48:36.041Z,95232.10
2018-10-19T01:51:06.295Z,95231.57
2018-10-19T01:53:35.925Z,95237.52
2018-10-19T01:56:05.773Z,95239.98
2018-10-19T01:58:35.289Z,95236.61
2018-10-19T02:01:05.127Z,95235.11
2018-10-19T02:03:34.945Z,95231.80
2018-10-19T02:06:04.688Z,95235.70
2018-10-19T02:08:34.341Z,95243.05
2018-10-19T02:11:04.116Z,95237.52
2018-10-19T02:13:33.675Z,95239.66
2018-10-19T02:16:03.583Z,95240.32
2018-10-19T02:18:33.368Z,95240.39
2018-10-19T02:21:03.245Z,95243.89
2018-10-19T02:23:32.955Z,95245.20
2018-10-19T02:26:02.603Z,95242.10
2018-10-19T02:28:33.007Z,95243.13
2018-10-19T02:31:02.976Z,95246.58
2018-10-19T02:33:32.841Z,95245.16
2018-10-19T02:36:02.535Z,95250.06
2018-10-19T02:38:32.208Z,95247.86
2018-10-19T02:41:01.805Z,95244.95
2018-10-19T02:43:31.824Z,95248.92
2018-10-19T02:46:01.852Z,95246.98
2018-10-19T02:48:31.603Z,95249.55
2018-10-19T02:51:01.182Z,95249.00
2018-10-19T02:53:31.061Z,95245.33
2018-10-19T02:56:00.707Z,95252.88
2018-10-19T02:58:30.620Z,95244.44
2018-10-19T03:01:00.906Z,95243.72
2018-10-19T03:03:30.796Z,95246.55
2018-10-19T03:06:00.484Z,95244.69
2018-10-19T03:08:30.381Z,95247.69
2018-10-19T03:11:00.311Z,95246.17
2018-10-19T03:13:29.729Z,95248.20
2018-10-19T03:15:59.718Z,95247.05
2018-10-19T03:18:29.631Z,95246.80
2018-10-19T03:20:59.399Z,95254.88
2018-10-19T03:23:29.128Z,95251.33
2018-10-19T03:25:58.658Z,95254.50
2018-10-19T03:28:28.570Z,95259.59
2018-10-19T03:30:58.768Z,95263.42
2018-10-19T03:33:28.564Z,95263.42
2018-10-19T03:35:58.259Z,95258.75
2018-10-19T03:38:27.732Z,95255.02
2018-10-19T03:40:57.438Z,95264.44
2018-10-19T03:43:27.120Z,95269.22
2018-10-19T03:45:57.270Z,95263.38
2018-10-19T03:48:26.663Z,95258.86
2018-10-19T03:50:56.485Z,95257.16
2018-10-19T03:53:25.980Z,95270.54
2018-10-19T03:55:55.750Z,95268.43
2018-10-19T03:58:25.534Z,95269.38
2018-10-19T04:00:55.119Z,95273.11
2018-10-19T04:03:24.661Z,95270.23
2018-10-19T04:05:54.509Z,95276.13
2018-10-19T04:08:23.832Z,95275.63
2018-10-19T04:10:53.711Z,95273.11
2018-10-19T04:13:23.151Z,95275.28
2018-10-19T04:15:52.954Z,95271.09
2018-10-19T04:18:22.704Z,95265.85
2018-10-19T04:20:52.295Z,95238.72
2018-10-19T04:23:21.982Z,95261.11
2018-10-19T04:25:51.345Z,95262.42
2018-10-19T04:28:21.088Z,95264.05
2018-10-19T04:30:50.578Z,95255.03
2018-10-19T04:33:20.305Z,95259.30
2018-10-19T04:35:50.545Z,95253.88
2018-10-19T04:38:20.225Z,95258.76
2018-10-19T04:40:49.850Z,95259.98
2018-10-19T04:43:19.673Z,95260.92
2018-10-19T04:45:49.400Z,95251.55
2018-10-19T04:48:20.859Z,95251.77
2018-10-19T04:50:50.610Z,95255.73
2018-10-19T04:53:20.480Z,95254.69
2018-10-19T04:55:50.157Z,95265.22
2018-10-19T04:58:19.833Z,95276.03
2018-10-19T05:00:50.227Z,95282.32
2018-10-19T05:03:20.091Z,95288.81
2018-10-19T05:05:49.801Z,95296.93
2018-10-19T05:08:19.886Z,95292.39
2018-10-19T05:10:49.354Z,95300.19
2018-10-19T05:13:19.542Z,95297.19
2018-10-19T05:15:49.321Z,95297.19
2018-10-19T05:18:19.098Z,95299.67
2018-10-19T05:20:48.850Z,95297.08
2018-10-19T05:23:18.666Z,95300.86
2018-10-19T05:25:48.561Z,95305.54
2018-10-19T05:28:18.414Z,95308.80
2018-10-19T05:30:48.391Z,95304.63
2018-10-19T05:33:18.183Z,95307.30
2018-10-19T05:35:47.989Z,95304.48
2018-10-19T05:38:17.722Z,95305.92
2018-10-19T05:40:47.552Z,95308.39
2018-10-19T05:43:17.469Z,95307.42
2018-10-19T05:45:47.187Z,95310.64
2018-10-19T05:48:17.060Z,95313.27
2018-10-19T05:50:53.448Z,95322.95
2018-10-19T05:53:23.001Z,95313.86
2018-10-19T05:55:53.101Z,95324.38
2018-10-19T05:58:22.681Z,95324.22
2018-10-19T06:00:52.478Z,95325.27
2018-10-19T06:03:22.219Z,95328.37
2018-10-19T06:05:52.520Z,95336.35
2018-10-19T06:08:22.448Z,95332.20
2018-10-19T06:10:52.396Z,95339.94
2018-10-19T06:13:22.163Z,95336.89
2018-10-19T06:15:52.058Z,95329.27
2018-10-19T06:18:21.906Z,95336.55
2018-10-19T06:20:51.796Z,95333.17
2018-10-19T06:23:21.604Z,95331.61
2018-10-19T06:25:51.474Z,95336.63
2018-10-19T06:28:21.102Z,95342.24
2018-10-19T06:30:51.057Z,95343.30
2018-10-19T06:33:20.987Z,95342.67
2018-10-19T06:35:50.762Z,95342.38
2018-10-19T06:38:20.897Z,95343.47
2018-10-19T06:40:50.873Z,95339.31
2018-10-19T06:43:20.724Z,95341.39
2018-10-19T06:45:50.556Z,95336.78
2018-10-19T06:48:20.474Z,95342.26
2018-10-19T06:50:50.272Z,95336.61
2018-10-19T06:53:20.101Z,95341.33
2018-10-19T06:55:49.794Z,95342.18
2018-10-19T06:58:19.821Z,95345.94
2018-10-19T07:00:49.726Z,95348.88
2018-10-19T07:03:19.569Z,95348.95
2018-10-19T07:05:50.249Z,95346.65
2018-10-19T07:08:20.156Z,95345.89
2018-10-19T07:10:50.129Z,95344.02
2018-10-19T07:13:20.016Z,95349.75
2018-10-19T07:15:49.875Z,95346.06
2018-10-19T07:18:19.733Z,95338.44
2018-10-19T07:20:49.507Z,95327.11
2018-10-19T07:23:19.635Z,95334.88
2018-10-19T07:25:49.401Z,95333.61
2018-10-19T07:28:19.218Z,95333.16
2018-10-19T07:30:49.171Z,95331.45
2018-10-19T07:33:18.995Z,95328.59
2018-10-19T07:35:49.104Z,95320.44
2018-10-19T07:38:18.927Z,95319.13
2018-10-19T07:40:48.897Z,95314.91
2018-10-19T07:43:18.846Z,95312.27
2018-10-19T07:45:48.937Z,95316.72
2018-10-19T07:48:19.258Z,95313.28
2018-10-19T07:50:49.125Z,95310.38
2018-10-19T07:53:19.198Z,95306.41
2018-10-19T07:55:49.213Z,95307.38
2018-10-19T07:58:19.130Z,95296.85
2018-10-19T08:00:49.630Z,95297.84
2018-10-19T08:03:19.582Z,95296.73
2018-10-19T08:05:49.489Z,95302.95
2018-10-19T08:08:19.472Z,95299.91
2018-10-19T08:10:49.425Z,95296.66
2018-10-19T08:13:19.527Z,95296.77
2018-10-19T08:15:49.569Z,95290.92
2018-10-19T08:18:19.592Z,95279.87
2018-10-19T08:20:49.499Z,95282.97
2018-10-19T08:23:19.334Z,95282.13
2018-10-19T08:25:49.528Z,95285.13
2018-10-19T08:28:19.369Z,95280.08
2018-10-19T08:30:49.377Z,95283.77
2018-10-19T08:33:19.290Z,95284.19
2018-10-19T08:35:49.118Z,95288.44
2018-10-19T08:38:19.229Z,95287.75
2018-10-19T08:40:49.170Z,95287.94
2018-10-19T08:43:19.612Z,95284.98
2018-10-19T08:45:49.580Z,95293.28
2018-10-19T08:48:19.693Z,95280.00
2018-10-19T08:50:49.608Z,95280.66
2018-10-19T08:53:19.555Z,95282.89
2018-10-19T08:55:49.993Z,95280.16
2018-10-19T08:58:19.927Z,95280.28
2018-10-19T09:00:49.906Z,95277.31
2018-10-19T09:03:20.038Z,95273.75
2018-10-19T09:05:49.880Z,95266.30
2018-10-19T09:08:20.030Z,95280.05
2018-10-19T09:10:50.126Z,95275.16
2018-10-19T09:13:20.593Z,95271.91
2018-10-19T09:15:50.529Z,95260.96
2018-10-19T09:18:20.690Z,95265.17
2018-10-19T09:20:50.987Z,95268.29
2018-10-19T09:23:20.979Z,95262.23
2018-10-19T09:25:50.886Z,95264.18
2018-10-19T09:28:20.807Z,95256.48
2018-10-19T09:30:50.729Z,95258.43
2018-10-19T09:33:21.024Z,95265.07
2018-10-19T09:35:51.078Z,95252.78
2018-10-19T09:38:21.025Z,95248.36
2018-10-19T09:40:51.131Z,95244.02
2018-10-19T09:43:21.133Z,95243.04
2018-10-19T09:45:51.063Z,95245.02
2018-10-19T09:48:21.050Z,95238.25
2018-10-19T09:50:51.065Z,95235.25
2018-10-19T09:53:20.974Z,95231.56
2018-10-19T09:55:50.895Z,95228.39
2018-10-19T09:58:21.010Z,95232.06
2018-10-19T10:00:55.674Z,95216.76
2018-10-19T10:03:25.875Z,95216.81
2018-10-19T10:05:55.903Z,95219.70
2018-10-19T10:08:25.905Z,95217.64
2018-10-19T10:10:55.751Z,95214.48
2018-10-19T10:13:25.630Z,95200.41
2018-10-19T10:15:55.902Z,95202.17
2018-10-19T10:18:25.670Z,95202.28
2018-10-19T10:20:55.650Z,95188.81
2018-10-19T10:23:25.390Z,95196.33
2018-10-19T10:25:55.225Z,95193.88
2018-10-19T10:28:25.334Z,95187.33
2018-10-19T10:30:55.162Z,95187.56
2018-10-19T10:33:24.955Z,95187.48
2018-10-19T10:35:54.787Z,95178.14
2018-10-19T10:38:24.521Z,95178.63
2018-10-19T10:40:54.780Z,95175.28
2018-10-19T10:43:24.429Z,95170.30
2018-10-19T10:45:54.298Z,95170.26
2018-10-19T10:48:24.007Z,95170.68
2018-10-19T10:50:54.275Z,95167.59
2018-10-19T10:53:24.156Z,95158.72
2018-10-19T10:55:54.111Z,95164.95
2018-10-19T10:58:23.834Z,95161.57
2018-10-19T11:00:53.760Z,95152.91
2018-10-19T11:03:23.453Z,95150.14
2018-10-19T11:05:53.554Z,95141.58
2018-10-19T11:08:24.019Z,95148.98
2018-10-19T11:11:03.934Z,95140.23
2018-10-19T11:13:33.957Z,95144.39
2018-10-19T11:16:04.012Z,95143.23
2018-10-19T11:18:33.906Z,95128.30
2018-10-19T11:21:03.998Z,95138.49
2018-10-19T11:23:34.218Z,95128.80
2018-10-19T11:26:04.513Z,95135.68
2018-10-19T11:28:34.478Z,95135.91
2018-10-19T11:31:04.505Z,95137.63
2018-10-19T11:33:34.497Z,95131.83
2018-10-19T11:36:04.530Z,95124.32
2018-10-19T11:38:34.549Z,95121.89
2018-10-19T11:41:04.584Z,95121.22
2018-10-19T11:43:34.483Z,95116.66
2018-10-19T11:46:04.347Z,95109.99
2018-10-19T11:48:34.484Z,95111.91
2018-10-19T11:51:04.455Z,95116.89
2018-10-19T11:53:34.554Z,95111.64
2018-10-19T11:56:04.476Z,95108.33
2018-10-19T11:58:34.470Z,95108.91
2018-10-19T12:01:04.440Z,95098.21
2018-10-19T12:03:34.491Z,95091.59
2018-10-19T12:06:04.453Z,95089.14
2018-10-19T12:08:34.546Z,95086.09
2018-10-19T12:11:04.570Z,95085.98
2018-10-19T12:13:34.859Z,95086.39
2018-10-19T12:16:05.178Z,95087.67
2018-10-19T12:18:35.003Z,95086.91
2018-10-19T12:21:04.762Z,95082.31
2018-10-19T12:23:34.548Z,95078.52
2018-10-19T12:26:04.525Z,95073.42
2018-10-19T12:28:34.450Z,95085.56
2018-10-19T12:31:04.279Z,95075.47
2018-10-19T12:33:34.101Z,95078.23
2018-10-19T12:36:03.953Z,95080.92
2018-10-19T12:38:33.919Z,95080.16
2018-10-19T12:41:03.714Z,95069.91
2018-10-19T12:43:33.743Z,95074.97
2018-10-19T12:46:24.969Z,95066.00
2018-10-19T12:48:55.622Z,95065.20
2018-10-19T12:51:25.217Z,95072.02
2018-10-19T12:53:55.021Z,95069.27
2018-10-19T12:56:24.641Z,95076.80
2018-10-19T12:58:55.106Z,95071.63
2018-10-19T13:01:25.791Z,95073.28
2018-10-19T13:03:55.682Z,95080.33
2018-10-19T13:06:25.232Z,95084.20
2018-10-19T13:08:55.189Z,95083.38
2018-10-19T13:11:25.037Z,95086.40
2018-10-19T13:13:55.236Z,95091.09
2018-10-19T13:16:24.996Z,95083.95
2018-10-19T13:18:54.965Z,95086.44
2018-10-19T13:21:24.495Z,95083.61
2018-10-19T13:23:54.429Z,95085.02
2018-10-19T13:26:24.211Z,95080.34
2018-10-19T13:28:53.845Z,95081.75
2018-10-19T13:31:23.394Z,95077.58
2018-10-19T13:33:53.166Z,95075.95
2018-10-19T13:36:22.734Z,95078.56
2018-10-19T13:38:52.744Z,95071.92
2018-10-19T13:41:22.627Z,95082.17
2018-10-19T13:43:52.403Z,95083.61
2018-10-19T13:46:22.166Z,95086.45
2018-10-19T13:48:51.851Z,95088.11
2018-10-19T13:51:21.826Z,95092.96
2018-10-19T13:53:51.737Z,95095.62
2018-10-19T13:56:21.582Z,95093.67
2018-10-19T13:58:51.511Z,95093.73
2018-10-19T14:01:21.268Z,95091.92
2018-10-19T14:03:51.519Z,95092.23
2018-10-19T14:06:21.434Z,95096.95
2018-10-19T14:08:51.217Z,95092.82
2018-10-19T14:11:20.917Z,95094.59
2018-10-19T14:13:50.640Z,95092.94
2018-10-19T14:16:20.737Z,95107.02
2018-10-19T14:18:50.594Z,95099.50
2018-10-19T14:21:20.366Z,95100.58
2018-10-19T14:23:50.233Z,95095.02
2018-10-19T14:26:20.098Z,95091.78
2018-10-19T14:28:50.250Z,95094.66
2018-10-19T14:31:20.006Z,95094.96
2018-10-19T14:33:49.782Z,95100.47
2018-10-19T14:36:19.709Z,95102.14
2018-10-19T14:38:49.437Z,95103.25
2018-10-19T14:41:19.517Z,95110.63
2018-10-19T14:43:49.337Z,95110.77
2018-10-19T14:46:19.168Z,95115.70
2018-10-19T14:48:48.947Z,95112.31
2018-10-19T14:51:18.803Z,95124.51
2018-10-19T14:53:48.881Z,95130.80
2018-10-19T14:56:18.546Z,95139.81
2018-10-19T14:58:49.193Z,95144.32
2018-10-19T15:01:18.981Z,95140.51
2018-10-19T15:03:48.820Z,95152.19
2018-10-19T15:06:19.401Z,95147.58
2018-10-19T15:08:49.190Z,95155.58
2018-10-19T15:11:19.615Z,95155.88
2018-10-19T15:13:49.180Z,95162.11
2018-10-19T15:16:18.830Z,95161.41
2018-10-19T15:18:48.493Z,95164.75
2018-10-19T15:21:18.209Z,95171.39
2018-10-19T15:23:48.033Z,95166.79
2018-10-19T15:26:17.796Z,95168.72
2018-10-19T15:28:47.773Z,95164.73
2018-10-19T15:31:17.733Z,95168.23
2018-10-19T15:33:47.467Z,95157.80
2018-10-19T15:36:17.246Z,95165.69
2018-10-19T15:38:46.736Z,95168.60
2018-10-19T15:41:16.518Z,95177.42
2018-10-19T15:43:46.901Z,95172.81
2018-10-19T15:46:16.750Z,95179.09
2018-10-19T15:48:46.351Z,95174.71
2018-10-19T15:51:16.110Z,95185.77
2018-10-19T15:53:45.867Z,95186.05
2018-10-19T15:56:15.660Z,95185.81
2018-10-19T15:58:45.611Z,95183.12
2018-10-19T16:01:15.543Z,95180.84
2018-10-19T16:03:45.133Z,95183.52
2018-10-19T16:06:15.154Z,95193.31
2018-10-19T16:08:44.954Z,95192.09
2018-10-19T16:11:14.471Z,95199.49
2018-10-19T16:13:44.293Z,95203.56
2018-10-19T16:33:36.511Z,95221.23
2018-10-19T17:02:09.161Z,95260.09
2018-10-19T17:22:01.169Z,95279.55
2018-10-19T17:24:30.749Z,95272.22
2018-10-19T17:27:00.417Z,95279.32
2018-10-19T17:29:29.871Z,95276.48
2018-10-19T17:31:59.466Z,95277.41
2018-10-19T17:34:29.398Z,95280.56
2018-10-19T17:36:59.265Z,95287.30
2018-10-19T17:39:29.151Z,95281.59
2018-10-19T17:41:58.901Z,95292.03
2018-10-19T17:44:28.556Z,95290.66
2018-10-19T17:46:58.294Z,95294.84
2018-10-19T17:49:28.133Z,95301.43
2018-10-19T18:09:20.866Z,95302.89
2018-10-19T18:11:51.613Z,95308.47
2018-10-19T18:14:21.196Z,95310.05
2018-10-19T18:16:50.834Z,95311.31
2018-10-19T18:19:20.628Z,95308.20
2018-10-19T18:21:50.448Z,95311.58
2018-10-19T18:41:41.132Z,95330.69
2018-10-19T18:44:10.652Z,95328.02
2018-10-19T18:46:40.095Z,95326.89
2018-10-19T19:06:31.076Z,95341.91
2018-10-19T19:09:00.915Z,95346.68
2018-10-19T19:11:30.505Z,95341.83
2018-10-19T19:13:59.997Z,95350.76
2018-10-19T19:16:30.974Z,95346.02
2018-10-19T19:19:00.673Z,95342.44
2018-10-19T19:38:53.761Z,95353.86
2018-10-19T19:41:28.307Z,95356.02
2018-10-19T20:01:20.990Z,95362.67
2018-10-19T20:03:50.690Z,95366.19
2018-10-19T20:06:20.341Z,95362.03
2018-10-19T20:08:49.949Z,95365.24
2018-10-19T20:11:19.661Z,95369.20
2018-10-19T20:31:10.728Z,95368.83
2018-10-19T20:33:40.152Z,95361.22
2018-10-19T20:36:09.649Z,95368.13
2018-10-19T20:38:39.310Z,95368.70
2018-10-19T20:41:09.229Z,95367.61
2018-10-19T20:43:39.278Z,95364.27
2018-10-19T20:46:08.870Z,95365.31
2018-10-19T21:06:00.647Z,95364.45
2018-10-19T21:08:30.331Z,95363.70
2018-10-19T21:11:00.274Z,95358.70
2018-10-19T21:13:30.894Z,95361.59
2018-10-19T21:16:00.255Z,95361.35
2018-10-19T21:18:29.794Z,95363.52
2018-10-19T21:20:59.569Z,95355.14
2018-10-19T21:23:29.210Z,95361.74
2018-10-19T21:25:58.697Z,95364.63
2018-10-19T21:28:28.314Z,95360.70
2018-10-19T21:30:58.948Z,95365.45
2018-10-19T21:33:29.009Z,95367.85
2018-10-19T21:35:58.571Z,95364.72
2018-10-19T21:55:51.349Z,95366.75
2018-10-19T21:58:21.349Z,95362.56
2018-10-19T22:00:51.088Z,95360.69
2018-10-19T22:03:20.709Z,95366.00
2018-10-19T22:05:50.374Z,95364.93
2018-10-19T22:08:20.309Z,95371.27
2018-10-19T22:10:50.619Z,95376.00
2018-10-19T22:13:20.189Z,95376.80
2018-10-19T22:33:11.844Z,95392.06
2018-10-19T22:35:41.609Z,95390.74
2018-10-19T22:38:11.523Z,95386.27
2018-10-19T22:40:41.316Z,95377.30
2018-10-19T22:43:11.264Z,95378.35
2018-10-19T23:03:04.168Z,95373.81
2018-10-19T23:05:33.831Z,95371.46
2018-10-19T23:08:03.549Z,95371.50
2018-10-19T23:10:33.052Z,95373.59
2018-10-19T23:13:02.861Z,95374.64
2018-10-19T23:15:32.683Z,95367.98
2018-10-19T23:18:02.422Z,95372.14
2018-10-19T23:20:32.123Z,95370.83
2018-10-19T23:23:01.715Z,95376.33
2018-10-19T23:42:53.977Z,95372.30
2018-10-19T23:45:24.331Z,95372.81
2018-10-19T23:47:53.786Z,95382.30
2018-10-19T23:50:23.133Z,95378.62
2018-10-19T23:52:52.922Z,95381.23
2018-10-19T23:55:22.414Z,95383.88
2018-10-19T23:57:52.227Z,95381.97
